createdAt,value
2022-12-27T00:02:25.324Z,1.05
2022-12-27T00:04:52.754Z,0.85
2022-12-27T00:07:19.156Z,1.15
2022-12-27T00:09:45.632Z,0.85
2022-12-27T00:12:11.997Z,1.13
2022-12-27T00:14:38.461Z,1.00
2022-12-27T00:17:04.920Z,0.80
2022-12-27T00:19:31.357Z,1.05
2022-12-27T00:21:57.898Z,2.13
2022-12-27T00:24:24.284Z,1.00
2022-12-27T00:26:51.003Z,1.85
2022-12-27T00:29:17.404Z,0.93
2022-12-27T00:31:43.864Z,1.67
2022-12-27T00:34:10.525Z,1.15
2022-12-27T00:36:37.347Z,0.40
2022-12-27T00:39:04.355Z,0.93
2022-12-27T00:41:31.288Z,0.77
2022-12-27T00:43:57.843Z,1.35
2022-12-27T00:46:24.201Z,1.23
2022-12-27T00:48:50.586Z,0.47
2022-12-27T00:51:22.415Z,1.10
2022-12-27T00:53:49.455Z,1.67
2022-12-27T00:56:27.701Z,0.93
2022-12-27T00:58:58.982Z,0.80
2022-12-27T01:01:27.309Z,0.88
2022-12-27T01:03:54.119Z,1.20
2022-12-27T01:06:23.002Z,0.93
2022-12-27T01:08:50.248Z,2.53
2022-12-27T01:11:18.168Z,0.63
2022-12-27T01:13:45.296Z,1.05
2022-12-27T01:16:17.094Z,1.23
2022-12-27T01:18:44.584Z,0.95
2022-12-27T01:21:14.986Z,2.22
2022-12-27T01:23:41.608Z,1.20
2022-12-27T01:26:11.822Z,0.60
2022-12-27T01:28:38.243Z,1.88
2022-12-27T01:31:12.174Z,1.00
2022-12-27T01:33:39.266Z,0.68
2022-12-27T01:36:14.295Z,1.88
2022-12-27T01:38:43.328Z,1.70
2022-12-27T01:41:38.117Z,1.05
2022-12-27T01:44:58.594Z,1.25
2022-12-27T01:47:40.866Z,1.63
2022-12-27T01:50:10.399Z,0.98
2022-12-27T01:53:03.153Z,0.65
2022-12-27T01:55:53.709Z,1.10
2022-12-27T01:58:23.005Z,1.20
2022-12-27T02:00:49.515Z,1.40
2022-12-27T02:03:27.004Z,0.93
2022-12-27T02:05:53.780Z,7.70
2022-12-27T02:08:39.038Z,2.83
2022-12-27T02:11:07.311Z,1.90
2022-12-27T02:13:37.081Z,2.67
2022-12-27T02:16:11.417Z,0.82
2022-12-27T02:18:37.923Z,1.00
2022-12-27T02:21:22.836Z,1.25
2022-12-27T02:24:31.086Z,1.38
2022-12-27T02:27:31.705Z,1.52
2022-12-27T02:30:02.896Z,2.70
2022-12-27T02:32:36.488Z,0.80
2022-12-27T02:35:14.696Z,0.43
2022-12-27T02:38:12.401Z,0.75
2022-12-27T02:41:00.912Z,0.93
2022-12-27T02:43:47.237Z,0.30
2022-12-27T02:46:44.647Z,1.30
2022-12-27T02:49:46.061Z,1.55
2022-12-27T02:52:37.449Z,3.60
2022-12-27T02:55:10.185Z,0.45
2022-12-27T02:58:08.881Z,0.80
2022-12-27T03:01:12.156Z,2.40
2022-12-27T03:03:51.160Z,0.52
2022-12-27T03:06:40.853Z,1.35
2022-12-27T03:09:07.136Z,1.48
2022-12-27T03:12:05.826Z,0.60
2022-12-27T03:15:06.693Z,1.48
2022-12-27T03:17:40.265Z,1.27
2022-12-27T03:20:34.069Z,0.65
2022-12-27T03:23:21.308Z,1.48
2022-12-27T03:25:50.365Z,1.13
2022-12-27T03:28:41.959Z,1.45
2022-12-27T03:31:35.894Z,3.33
2022-12-27T03:34:27.812Z,1.08
2022-12-27T03:37:14.610Z,1.73
2022-12-27T03:40:10.061Z,1.85
2022-12-27T03:43:00.382Z,0.80
2022-12-27T03:45:58.438Z,1.65
2022-12-27T03:48:30.249Z,0.40
2022-12-27T03:51:05.114Z,1.25
2022-12-27T03:53:38.291Z,1.10
2022-12-27T03:56:06.701Z,0.77
2022-12-27T03:58:33.201Z,1.48
2022-12-27T04:00:59.703Z,1.38
2022-12-27T04:03:26.289Z,1.88
2022-12-27T04:05:52.771Z,0.82
2022-12-27T04:08:37.850Z,2.67
2022-12-27T04:11:22.535Z,1.45
2022-12-27T04:14:07.502Z,1.38
2022-12-27T04:16:52.173Z,1.00
2022-12-27T04:19:36.948Z,1.48
2022-12-27T04:22:21.586Z,0.80
2022-12-27T04:25:06.403Z,1.80
2022-12-27T04:27:51.057Z,2.45
2022-12-27T04:30:36.326Z,1.33
2022-12-27T04:33:20.978Z,1.80
2022-12-27T04:35:47.463Z,2.22
2022-12-27T04:38:13.865Z,2.05
2022-12-27T04:40:58.751Z,2.00
2022-12-27T04:43:43.537Z,1.13
2022-12-27T04:46:41.510Z,2.15
2022-12-27T04:49:33.067Z,1.33
2022-12-27T04:52:17.775Z,1.55
2022-12-27T04:54:56.492Z,2.03
2022-12-27T04:57:22.906Z,0.80
2022-12-27T05:00:08.078Z,1.20
2022-12-27T05:02:34.732Z,1.33
2022-12-27T05:05:01.241Z,0.85
2022-12-27T05:07:46.131Z,2.10
2022-12-27T05:10:30.718Z,1.00
2022-12-27T05:13:15.531Z,3.60
2022-12-27T05:15:41.951Z,1.63
2022-12-27T05:18:08.806Z,5.22
2022-12-27T05:20:35.225Z,1.77
2022-12-27T05:23:20.172Z,1.83
2022-12-27T05:25:47.128Z,0.60
2022-12-27T05:28:13.607Z,1.63
2022-12-27T05:30:42.798Z,1.17
2022-12-27T05:33:09.300Z,0.70
2022-12-27T05:35:35.994Z,1.13
2022-12-27T05:38:03.286Z,1.25
2022-12-27T05:40:29.847Z,1.98
2022-12-27T05:42:59.633Z,1.52
2022-12-27T05:45:26.294Z,0.90
2022-12-27T05:47:53.149Z,2.20
2022-12-27T05:50:20.163Z,2.95
2022-12-27T05:52:46.625Z,1.30
2022-12-27T05:55:13.072Z,1.65
2022-12-27T05:57:39.574Z,0.82
2022-12-27T06:00:06.666Z,0.65
2022-12-27T06:02:33.121Z,1.75
2022-12-27T06:04:59.621Z,0.73
2022-12-27T06:07:26.044Z,1.05
2022-12-27T06:09:52.590Z,4.05
2022-12-27T06:12:18.933Z,1.05
2022-12-27T06:14:45.275Z,3.70
2022-12-27T06:17:11.671Z,1.27
2022-12-27T06:19:38.069Z,1.38
2022-12-27T06:22:04.432Z,1.30
2022-12-27T06:24:30.890Z,1.52
2022-12-27T06:26:57.244Z,4.57
2022-12-27T06:29:23.651Z,4.38
2022-12-27T06:31:50.067Z,3.80
2022-12-27T06:34:16.529Z,1.17
2022-12-27T06:36:42.924Z,1.27
2022-12-27T06:39:09.416Z,1.30
2022-12-27T06:41:35.790Z,1.67
2022-12-27T06:44:02.367Z,1.52
2022-12-27T06:46:28.862Z,2.13
2022-12-27T06:48:55.406Z,1.15
2022-12-27T06:51:21.863Z,2.70
2022-12-27T06:53:48.722Z,3.33
2022-12-27T06:56:20.791Z,4.20
2022-12-27T06:58:48.388Z,4.13
2022-12-27T07:01:23.742Z,1.10
2022-12-27T07:03:52.296Z,1.90
2022-12-27T07:06:19.925Z,3.40
2022-12-27T07:08:47.644Z,2.15
2022-12-27T07:11:15.533Z,1.48
2022-12-27T07:16:15.066Z,2.00
2022-12-27T07:18:41.898Z,2.28
2022-12-27T07:21:10.786Z,2.28
2022-12-27T07:23:37.840Z,2.97
2022-12-27T07:26:12.359Z,2.10
2022-12-27T07:28:39.452Z,2.90
2022-12-27T07:31:10.572Z,2.13
2022-12-27T07:33:38.259Z,1.70
2022-12-27T07:36:07.512Z,2.58
2022-12-27T07:38:33.895Z,2.65
2022-12-27T07:41:01.107Z,2.00
2022-12-27T07:43:33.235Z,2.03
2022-12-27T07:46:08.522Z,1.10
2022-12-27T07:48:35.864Z,2.75
2022-12-27T07:51:03.275Z,4.03
2022-12-27T07:53:30.404Z,2.75
2022-12-27T07:55:56.921Z,2.03
2022-12-27T07:58:24.599Z,2.78
2022-12-27T08:00:52.646Z,3.08
2022-12-27T08:03:19.563Z,3.33
2022-12-27T08:05:52.622Z,2.58
2022-12-27T08:08:22.888Z,2.60
2022-12-27T08:10:49.442Z,4.60
2022-12-27T08:13:16.090Z,2.20
2022-12-27T08:15:43.625Z,3.15
2022-12-27T08:18:10.157Z,1.80
2022-12-27T08:20:37.372Z,2.13
2022-12-27T08:23:03.922Z,3.80
2022-12-27T08:25:30.795Z,1.95
2022-12-27T08:28:04.984Z,2.80
2022-12-27T08:30:31.557Z,2.15
2022-12-27T08:32:58.269Z,2.20
2022-12-27T08:35:51.411Z,2.53
2022-12-27T08:38:11.459Z,4.57
2022-12-27T08:40:42.381Z,1.33
2022-12-27T08:43:09.624Z,1.40
2022-12-27T08:45:38.235Z,2.83
2022-12-27T08:48:05.334Z,7.07
2022-12-27T08:50:32.527Z,2.03
2022-12-27T08:53:01.576Z,2.35
2022-12-27T08:55:29.273Z,2.40
2022-12-27T09:00:26.585Z,3.10
2022-12-27T09:02:53.206Z,2.55
2022-12-27T09:05:20.437Z,1.95
2022-12-27T09:07:47.375Z,2.08
2022-12-27T09:10:14.221Z,3.17
2022-12-27T09:12:40.627Z,2.25
2022-12-27T09:15:07.845Z,2.63
2022-12-27T09:17:34.531Z,2.00
2022-12-27T09:20:00.992Z,2.60
2022-12-27T09:22:28.735Z,2.08
2022-12-27T09:27:21.466Z,2.83
2022-12-27T09:29:48.524Z,2.33
2022-12-27T09:32:15.055Z,3.10
2022-12-27T09:34:41.591Z,3.85
2022-12-27T09:37:07.963Z,2.83
2022-12-27T09:39:34.345Z,1.55
2022-12-27T09:42:57.767Z,4.15
2022-12-27T09:45:33.686Z,3.58
2022-12-27T09:48:04.552Z,2.08
2022-12-27T09:50:35.354Z,1.88
2022-12-27T09:53:17.253Z,3.65
2022-12-27T09:55:47.910Z,2.38
2022-12-27T09:58:17.334Z,1.25
2022-12-27T10:00:46.486Z,2.67
2022-12-27T10:03:13.355Z,3.58
2022-12-27T10:05:44.302Z,1.70
2022-12-27T10:08:29.225Z,1.23
2022-12-27T10:11:08.370Z,3.50
2022-12-27T10:13:56.866Z,3.42
2022-12-27T10:16:32.347Z,5.00
2022-12-27T10:19:18.501Z,3.95
2022-12-27T10:22:23.217Z,2.83
2022-12-27T10:24:54.157Z,3.83
2022-12-27T10:27:26.087Z,2.08
2022-12-27T10:29:57.551Z,3.53
2022-12-27T10:32:24.319Z,2.05
2022-12-27T10:35:00.098Z,2.75
2022-12-27T10:37:27.754Z,3.55
2022-12-27T10:39:58.084Z,2.63
2022-12-27T10:42:35.675Z,1.88
2022-12-27T10:45:26.634Z,2.03
2022-12-27T10:47:55.909Z,4.90
2022-12-27T10:50:26.099Z,3.03
2022-12-27T10:52:57.342Z,2.38
2022-12-27T10:55:39.236Z,4.13
2022-12-27T10:58:37.185Z,3.03
2022-12-27T11:01:03.924Z,5.63
2022-12-27T11:03:31.041Z,2.15
2022-12-27T11:06:06.686Z,2.25
2022-12-27T11:08:33.108Z,2.95
2022-12-27T11:11:14.651Z,2.38
2022-12-27T11:13:43.572Z,2.50
2022-12-27T11:16:32.153Z,1.65
2022-12-27T11:19:01.090Z,4.25
2022-12-27T11:21:29.377Z,2.75
2022-12-27T11:23:59.594Z,2.95
2022-12-27T11:26:31.596Z,2.13
2022-12-27T11:29:01.555Z,2.90
2022-12-27T11:31:32.613Z,2.75
2022-12-27T11:34:04.832Z,4.80
2022-12-27T11:36:33.328Z,1.38
2022-12-27T11:39:03.071Z,2.70
2022-12-27T11:41:36.211Z,0.95
2022-12-27T11:44:08.392Z,1.80
2022-12-27T11:46:42.467Z,4.20
2022-12-27T11:49:20.575Z,3.03
2022-12-27T11:51:56.752Z,3.75
2022-12-27T11:55:17.201Z,2.53
2022-12-27T12:03:41.187Z,3.53
2022-12-27T12:06:13.713Z,2.92
2022-12-27T12:09:07.810Z,3.33
2022-12-27T12:12:02.170Z,1.52
2022-12-27T12:14:46.609Z,2.42
2022-12-27T12:17:39.474Z,1.67
2022-12-27T12:20:48.768Z,3.33
2022-12-27T12:23:51.696Z,2.00
2022-12-27T12:26:20.234Z,1.02
2022-12-27T12:29:14.681Z,2.00
2022-12-27T12:32:06.755Z,0.77
2022-12-27T12:34:48.695Z,2.88
2022-12-27T12:37:45.061Z,0.85
2022-12-27T12:40:43.754Z,1.40
2022-12-27T12:43:27.551Z,5.60
2022-12-27T12:46:15.815Z,1.88
2022-12-27T12:48:51.866Z,2.22
2022-12-27T12:51:50.055Z,2.05
2022-12-27T12:54:30.122Z,6.63
2022-12-27T12:57:34.100Z,2.15
2022-12-27T13:00:22.008Z,3.72
2022-12-27T13:03:06.903Z,2.83
2022-12-27T13:05:53.400Z,2.35
2022-12-27T13:08:27.697Z,4.40
2022-12-27T13:11:13.145Z,1.75
2022-12-27T13:14:14.975Z,2.97
2022-12-27T13:16:47.461Z,4.38
2022-12-27T13:19:54.691Z,2.63
2022-12-27T13:22:57.806Z,2.38
2022-12-27T13:26:01.990Z,2.38
2022-12-27T13:28:52.953Z,3.17
2022-12-27T13:31:47.353Z,4.13
2022-12-27T13:34:44.491Z,4.78
2022-12-27T13:37:48.001Z,5.10
2022-12-27T13:40:30.874Z,3.17
2022-12-27T13:43:23.424Z,1.00
2022-12-27T13:46:23.972Z,3.38
2022-12-27T13:49:20.942Z,1.35
2022-12-27T13:51:51.852Z,1.38
2022-12-27T13:54:59.439Z,3.22
2022-12-27T13:57:56.075Z,2.13
2022-12-27T14:00:24.755Z,2.40
2022-12-27T14:03:29.623Z,1.85
2022-12-27T14:06:17.751Z,2.13
2022-12-27T14:09:05.036Z,1.90
2022-12-27T14:11:47.354Z,2.88
2022-12-27T14:14:18.045Z,4.07
2022-12-27T14:17:16.754Z,3.15
2022-12-27T14:20:03.090Z,2.88
2022-12-27T14:22:40.754Z,1.52
2022-12-27T14:25:34.348Z,3.28
2022-12-27T14:28:06.843Z,2.10
2022-12-27T14:31:12.501Z,2.72
2022-12-27T14:34:01.549Z,2.35
2022-12-27T14:36:52.384Z,1.58
2022-12-27T14:39:44.184Z,3.08
2022-12-27T14:42:44.332Z,2.75
2022-12-27T14:45:25.952Z,1.17
2022-12-27T14:48:30.163Z,1.67
2022-12-27T14:54:02.893Z,2.42
2022-12-27T14:56:36.807Z,3.63
2022-12-27T14:59:18.545Z,1.88
2022-12-27T15:02:01.935Z,2.92
2022-12-27T15:05:03.556Z,3.58
2022-12-27T15:07:43.385Z,4.97
2022-12-27T15:13:12.638Z,1.70
2022-12-27T15:16:15.590Z,4.13
2022-12-27T15:19:11.486Z,2.00
2022-12-27T15:21:59.655Z,5.20
2022-12-27T15:25:03.575Z,5.00
2022-12-27T15:27:41.765Z,3.85
2022-12-27T15:30:18.325Z,2.83
2022-12-27T15:32:53.085Z,4.88
2022-12-27T15:35:51.259Z,4.93
2022-12-27T15:38:41.290Z,5.60
2022-12-27T15:41:07.711Z,14.80
2022-12-27T15:44:13.779Z,19.17
2022-12-27T15:46:57.901Z,21.90
2022-12-27T15:49:46.210Z,21.73
2022-12-27T15:52:36.852Z,13.32
2022-12-27T15:55:12.645Z,15.52
2022-12-27T15:58:03.131Z,10.07
2022-12-27T16:00:33.860Z,13.07
2022-12-27T16:03:29.776Z,8.57
2022-12-27T16:05:56.947Z,8.73
2022-12-27T16:08:26.304Z,10.35
2022-12-27T16:10:53.607Z,14.90
2022-12-27T16:13:23.141Z,9.85
2022-12-27T16:15:52.491Z,11.65
2022-12-27T16:18:18.862Z,15.48
2022-12-27T16:20:56.788Z,17.80
2022-12-27T16:23:25.538Z,16.27
2022-12-27T16:26:05.508Z,17.08
2022-12-27T16:31:02.533Z,15.10
2022-12-27T16:33:33.595Z,10.23
2022-12-27T16:36:11.955Z,14.00
2022-12-27T16:38:47.603Z,8.63
2022-12-27T16:41:51.340Z,11.20
2022-12-27T16:44:51.634Z,18.80
2022-12-27T16:47:39.959Z,16.88
2022-12-27T16:50:15.236Z,9.80
2022-12-27T16:53:00.986Z,9.65
2022-12-27T16:56:04.082Z,9.02
2022-12-27T16:58:30.543Z,10.20
2022-12-27T17:00:59.487Z,11.93
2022-12-27T17:03:38.321Z,12.35
2022-12-27T17:06:33.936Z,12.68
2022-12-27T17:09:10.536Z,16.25
2022-12-27T17:12:00.023Z,15.90
2022-12-27T17:14:35.806Z,11.25
2022-12-27T17:17:07.318Z,11.55
2022-12-27T17:19:44.225Z,16.65
2022-12-27T17:22:14.637Z,19.17
2022-12-27T17:24:42.690Z,16.55
2022-12-27T17:27:41.131Z,26.67
2022-12-27T17:30:19.827Z,30.27
2022-12-27T17:33:18.305Z,26.25
2022-12-27T17:36:13.861Z,25.02
2022-12-27T17:38:59.115Z,19.38
2022-12-27T17:41:45.386Z,16.30
2022-12-27T17:44:39.450Z,18.85
2022-12-27T17:47:37.207Z,29.80
2022-12-27T17:50:07.251Z,35.35
2022-12-27T17:52:52.634Z,39.22
2022-12-27T17:55:44.612Z,31.35
2022-12-27T17:58:14.186Z,25.00
2022-12-27T18:00:53.640Z,19.95
2022-12-27T18:03:21.512Z,21.25
2022-12-27T18:08:18.547Z,27.95
2022-12-27T18:10:45.086Z,27.55
2022-12-27T18:13:18.419Z,27.73
2022-12-27T18:15:48.885Z,33.13
2022-12-27T18:18:27.582Z,28.67
2022-12-27T18:21:04.133Z,27.38
2022-12-27T18:23:41.115Z,29.65
2022-12-27T18:26:13.852Z,24.05
2022-12-27T18:28:41.797Z,24.75
2022-12-27T18:31:28.577Z,23.35
2022-12-27T18:34:03.458Z,27.85
2022-12-27T18:36:33.079Z,28.90
2022-12-27T18:39:08.285Z,27.77
2022-12-27T18:41:41.131Z,24.83
2022-12-27T18:44:18.773Z,26.98
2022-12-27T18:46:53.369Z,24.00
2022-12-27T18:49:25.603Z,26.27
2022-12-27T18:51:53.209Z,20.65
2022-12-27T18:54:28.447Z,20.33
2022-12-27T18:56:56.771Z,22.92
2022-12-27T18:59:29.224Z,23.25
2022-12-27T19:01:58.509Z,20.00
2022-12-27T19:04:31.878Z,23.42
2022-12-27T19:07:07.862Z,33.53
2022-12-27T19:09:39.240Z,29.58
2022-12-27T19:12:19.113Z,23.77
2022-12-27T19:14:46.712Z,24.65
2022-12-27T19:17:32.832Z,28.05
2022-12-27T19:20:05.289Z,33.22
2022-12-27T19:22:48.198Z,29.52
2022-12-27T19:25:35.933Z,32.80
2022-12-27T19:28:26.048Z,22.88
2022-12-27T19:31:16.229Z,20.95
2022-12-27T19:33:48.129Z,16.45
2022-12-27T19:36:14.856Z,23.20
2022-12-27T19:38:46.018Z,25.35
2022-12-27T19:41:14.892Z,22.83
2022-12-27T19:43:45.956Z,21.05
2022-12-27T19:46:13.248Z,19.92
2022-12-27T19:48:39.932Z,24.10
2022-12-27T19:51:07.479Z,21.38
2022-12-27T19:53:38.441Z,23.65
2022-12-27T19:56:07.773Z,26.17
2022-12-27T19:58:34.648Z,22.27
2022-12-27T20:01:01.638Z,20.42
2022-12-27T20:03:28.800Z,18.75
2022-12-27T20:06:14.908Z,22.05
2022-12-27T20:08:48.416Z,18.77
2022-12-27T20:11:21.120Z,20.33
2022-12-27T20:13:48.177Z,20.27
2022-12-27T20:16:16.901Z,25.45
2022-12-27T20:18:44.494Z,21.67
2022-12-27T20:21:17.071Z,25.80
2022-12-27T20:23:44.023Z,23.50
2022-12-27T20:26:10.926Z,23.48
2022-12-27T20:28:37.455Z,25.33
2022-12-27T20:31:13.566Z,22.73
2022-12-27T20:33:40.299Z,24.55
2022-12-27T20:36:07.809Z,25.30
2022-12-27T20:38:34.615Z,22.60
2022-12-27T20:41:13.158Z,24.85
2022-12-27T20:43:40.273Z,18.95
2022-12-27T20:46:15.400Z,21.40
2022-12-27T20:48:43.940Z,17.77
2022-12-27T20:51:13.386Z,18.15
2022-12-27T20:53:39.840Z,17.50
2022-12-27T20:56:08.881Z,13.30
2022-12-27T20:58:35.358Z,17.55
2022-12-27T21:01:10.183Z,17.08
2022-12-27T21:03:37.940Z,18.02
2022-12-27T21:06:18.791Z,14.90
2022-12-27T21:08:49.213Z,14.68
2022-12-27T21:11:23.534Z,15.05
2022-12-27T21:13:50.218Z,19.52
2022-12-27T21:16:22.641Z,19.90
2022-12-27T21:18:49.892Z,16.60
2022-12-27T21:21:20.024Z,16.63
2022-12-27T21:23:47.091Z,16.88
2022-12-27T21:26:16.465Z,13.80
2022-12-27T21:28:43.024Z,17.45
2022-12-27T21:31:11.094Z,14.88
2022-12-27T21:33:37.627Z,17.65
2022-12-27T21:36:11.904Z,15.80
2022-12-27T21:38:38.291Z,16.25
2022-12-27T21:41:09.692Z,12.50
2022-12-27T21:43:36.030Z,13.23
2022-12-27T21:46:12.749Z,18.00
2022-12-27T21:48:39.708Z,12.40
2022-12-27T21:51:12.169Z,11.90
2022-12-27T21:53:38.996Z,13.45
2022-12-27T21:56:06.216Z,11.90
2022-12-27T21:58:34.907Z,12.18
2022-12-27T22:01:14.933Z,12.55
2022-12-27T22:06:17.358Z,12.95
2022-12-27T22:08:46.138Z,16.48
2022-12-27T22:11:13.480Z,12.60
2022-12-27T22:13:40.466Z,11.38
2022-12-27T22:16:11.536Z,13.65
2022-12-27T22:18:41.477Z,15.52
2022-12-27T22:21:09.591Z,15.55
2022-12-27T22:23:38.880Z,14.15
2022-12-27T22:26:09.349Z,14.32
2022-12-27T22:28:35.740Z,12.00
2022-12-27T22:31:10.925Z,13.25
2022-12-27T22:33:38.166Z,11.13
2022-12-27T22:36:06.690Z,11.02
2022-12-27T22:38:33.355Z,11.27
2022-12-27T22:41:07.759Z,12.80
2022-12-27T22:43:35.012Z,16.67
2022-12-27T22:46:06.580Z,9.65
2022-12-27T22:48:33.471Z,9.80
2022-12-27T22:51:06.732Z,11.10
2022-12-27T22:53:33.179Z,11.13
2022-12-27T22:55:59.567Z,10.98
2022-12-27T22:58:32.105Z,9.93
2022-12-27T23:00:59.293Z,10.63
2022-12-27T23:03:25.676Z,12.07
2022-12-27T23:06:01.265Z,9.98
2022-12-27T23:08:27.634Z,10.90
2022-12-27T23:10:54.278Z,12.15
2022-12-27T23:13:24.922Z,14.40
2022-12-27T23:16:02.504Z,9.18
2022-12-27T23:18:29.724Z,9.93
2022-12-27T23:21:20.165Z,10.57
2022-12-27T23:23:43.518Z,7.40
2022-12-27T23:26:13.984Z,8.82
2022-12-27T23:28:43.553Z,9.02
2022-12-27T23:31:11.041Z,9.20
2022-12-27T23:33:38.939Z,11.05
2022-12-27T23:36:06.441Z,13.52
2022-12-27T23:38:32.955Z,11.60
2022-12-27T23:41:02.271Z,8.45
2022-12-27T23:43:51.519Z,11.55
2022-12-27T23:46:21.236Z,7.47
2022-12-27T23:48:47.812Z,9.70
2022-12-27T23:51:14.541Z,9.40
2022-12-27T23:53:41.836Z,9.60
2022-12-27T23:56:20.905Z,6.32
2022-12-27T23:58:48.617Z,8.57
